Time;durP1;ratioP1;P1;durP2;ratioP2;P2;SDS_P1;SDS_P2;PMS_P1;PMS_P2;Temp;Humidity;BMP_temperature;BMP_pressure;BME280_temperature;BME280_humidity;BME280_pressure;Samples;Min_cycle;Max_cycle;Signal;HPM_P1;HPM_P2
2021/12/07 00:00:42;;;;;;;;;1.00;1.00;;;;;6.69;73.47;100644.84;5036537;28;45341;-56
2021/12/07 00:03:07;;;;;;;;;0.00;0.00;;;;;6.91;73.46;100676.66;5036755;28;45545;-54
2021/12/07 00:05:33;;;;;;;;;2.00;1.50;;;;;6.93;73.45;100684.63;5054566;28;45636;-59
2021/12/07 00:07:58;;;;;;;;;3.00;2.00;;;;;6.95;72.98;100696.22;5054405;28;45236;-56
2021/12/07 00:10:24;;;;;;;;;2.00;1.00;;;;;6.94;72.83;100686.31;5054570;28;45321;-59
2021/12/07 00:12:49;;;;;;;;;1.75;1.75;;;;;6.71;72.60;100645.50;5054590;28;45340;-57
2021/12/07 00:15:17;;;;;;;;;1.00;1.00;;;;;6.75;72.90;100674.97;5054752;28;45338;-64
2021/12/07 00:17:43;;;;;;;;;6.20;1.60;;;;;6.90;73.33;100690.47;5054635;28;45402;-63
2021/12/07 00:20:11;;;;;;;;;1.40;1.40;;;;;6.90;72.83;100688.56;5015776;28;45408;-62
2021/12/07 00:22:38;;;;;;;;;4.20;2.60;;;;;6.90;72.75;100683.13;5053438;28;45922;-58
2021/12/07 00:25:05;;;;;;;;;1.60;0.00;;;;;6.94;72.85;100680.03;5054223;28;46282;-54
2021/12/07 00:27:30;;;;;;;;;1.80;1.80;;;;;6.89;72.29;100678.72;5054174;28;45353;-58
2021/12/07 00:29:56;;;;;;;;;1.50;1.50;;;;;6.90;72.65;100687.75;5019609;28;45381;-59
2021/12/07 00:32:28;;;;;;;;;1.00;1.00;;;;;6.93;71.92;100686.53;5054833;28;45364;-58
2021/12/07 00:37:23;;;;;;;;;2.60;2.60;;;;;6.99;71.90;100694.78;5053150;28;45582;-60
2021/12/07 00:39:49;;;;;;;;;1.40;0.60;;;;;7.02;72.16;100697.16;5036590;28;45494;-60
2021/12/07 00:42:14;;;;;;;;;5.00;2.50;;;;;6.97;71.75;100696.00;5035955;28;45536;-56
2021/12/07 00:44:40;;;;;;;;;1.75;0.75;;;;;6.99;71.96;100707.59;5036049;28;45462;-59
2021/12/07 00:47:05;;;;;;;;;1.00;1.00;;;;;7.00;71.27;100709.28;5038986;28;45310;-61
2021/12/07 00:49:31;;;;;;;;;1.50;1.00;;;;;6.92;72.00;100688.41;5039676;28;45399;-60
2021/12/07 00:51:56;;;;;;;;;1.25;1.25;;;;;7.00;71.60;100703.84;5039882;28;45338;-59
2021/12/07 00:54:22;;;;;;;;;3.00;2.00;;;;;6.77;71.68;100672.88;5057674;28;46371;-58
2021/12/07 00:56:47;;;;;;;;;2.75;1.00;;;;;7.00;71.41;100706.56;5057393;28;45321;-57
2021/12/07 00:59:13;;;;;;;;;0.50;0.50;;;;;7.00;71.05;100706.56;5056845;28;45831;-56
2021/12/07 01:01:39;;;;;;;;;2.00;1.60;;;;;7.04;71.27;100713.31;5057373;28;45459;-60
2021/12/07 01:04:04;;;;;;;;;2.00;1.25;;;;;7.05;70.94;100717.75;5057010;28;45738;-57
2021/12/07 01:06:46;;;;;;;;;1.75;1.00;;;;;7.03;70.52;100708.91;5057157;28;45266;-59
2021/12/07 01:09:19;;;;;;;;;4.60;1.00;;;;;6.98;70.34;100705.91;5056882;28;45361;-58
2021/12/07 01:25:31;;;;;;;;;0.00;0.00;;;;;6.90;69.86;100715.03;5056882;28;46279;-58
2021/12/07 01:28:02;;;;;;;;;1.40;0.40;;;;;6.89;69.83;100711.44;5056805;28;45449;-57
2021/12/07 01:33:23;;;;;;;;;0.00;0.00;;;;;6.81;70.19;100691.59;5046728;28;45869;-56
2021/12/07 01:46:33;;;;;;;;;1.00;1.00;;;;;6.62;70.90;100713.78;5056794;28;45880;-59
2021/12/07 01:59:34;;;;;;;;;0.20;0.00;;;;;6.56;71.75;100706.34;5055839;28;45464;-59
2021/12/07 02:02:01;;;;;;;;;0.40;0.40;;;;;6.44;72.05;100696.94;5040592;28;45469;-56
2021/12/07 02:04:26;;;;;;;;;1.00;1.00;;;;;6.49;71.96;100713.59;5038429;28;45536;-57
2021/12/07 02:06:53;;;;;;;;;0.00;0.00;;;;;6.21;71.91;100678.75;5038763;28;46847;-59
2021/12/07 02:09:18;;;;;;;;;0.80;0.00;;;;;6.48;72.20;100717.34;5038151;28;45516;-58
2021/12/07 02:11:49;;;;;;;;;0.00;0.00;;;;;6.50;72.19;100731.63;5038432;28;45316;-62
2021/12/07 02:14:18;;;;;;;;;1.00;1.00;;;;;6.52;71.51;100737.78;5056566;28;45312;-60
2021/12/07 02:16:48;;;;;;;;;0.00;0.00;;;;;6.53;72.18;100723.09;5037894;28;45820;-57
2021/12/07 02:19:14;;;;;;;;;0.60;0.60;;;;;6.37;71.24;100708.56;5056198;28;45484;-61
2021/12/07 02:21:40;;;;;;;;;0.00;0.00;;;;;6.46;71.29;100743.97;5056823;28;45406;-61
2021/12/07 02:24:05;;;;;;;;;0.25;0.25;;;;;6.47;71.23;100732.84;5056288;28;45496;-61
2021/12/07 02:26:31;;;;;;;;;0.00;0.00;;;;;6.44;71.75;100733.22;5056127;28;45919;-62
2021/12/07 02:28:57;;;;;;;;;1.00;1.00;;;;;6.47;72.12;100740.19;5055936;28;45436;-59
2021/12/07 02:31:22;;;;;;;;;0.00;0.00;;;;;6.48;71.91;100739.16;5056087;28;45338;-51
2021/12/07 02:33:48;;;;;;;;;1.00;1.00;;;;;6.53;72.24;100744.06;5056446;28;45733;-55
2021/12/07 02:36:14;;;;;;;;;1.75;1.75;;;;;6.49;71.69;100736.25;5056011;28;46174;-59
2021/12/07 02:38:39;;;;;;;;;2.25;0.00;;;;;6.50;72.04;100732.50;5055918;28;45320;-57
2021/12/07 02:41:05;;;;;;;;;1.75;1.75;;;;;6.51;71.89;100756.00;5054754;28;45257;-55
2021/12/07 02:43:30;;;;;;;;;0.75;0.75;;;;;6.23;71.33;100707.53;5038343;28;45289;-61
2021/12/07 02:45:56;;;;;;;;;0.00;0.00;;;;;6.36;72.06;100725.97;5055804;28;45557;-62
2021/12/07 02:48:22;;;;;;;;;1.50;1.50;;;;;6.42;71.68;100731.72;5055849;28;45443;-62
2021/12/07 02:50:48;;;;;;;;;0.00;0.00;;;;;6.24;71.97;100703.75;5056055;28;45462;-62
2021/12/07 02:53:14;;;;;;;;;0.40;0.00;;;;;6.44;71.79;100735.97;5054636;28;45540;-54
2021/12/07 02:55:40;;;;;;;;;2.25;0.25;;;;;6.42;72.21;100727.13;5055879;28;47033;-54
2021/12/07 02:58:05;;;;;;;;;2.75;1.50;;;;;6.42;72.28;100732.56;5055418;28;45432;-54
2021/12/07 03:00:41;;;;;;;;;1.00;1.00;;;;;6.42;72.20;100720.81;5055838;28;45516;-57
2021/12/07 03:03:10;;;;;;;;;1.20;1.00;;;;;6.18;73.09;100692.72;5047685;27;45439;-59
2021/12/07 03:27:04;;;;;;;;;3.20;1.00;;;;;6.45;71.95;100745.81;5054833;28;45835;-59
2021/12/07 03:29:30;;;;;;;;;3.50;2.25;;;;;6.44;72.13;100751.47;5055088;28;45351;-55
2021/12/07 03:31:55;;;;;;;;;3.25;2.00;;;;;6.40;72.19;100744.69;5037047;28;45230;-54
2021/12/07 03:34:21;;;;;;;;;2.00;1.00;;;;;6.43;72.00;100757.94;5055146;28;45159;-55
2021/12/07 03:36:46;;;;;;;;;5.75;2.00;;;;;6.45;72.08;100750.44;5054742;28;46105;-60
2021/12/07 03:39:12;;;;;;;;;3.75;1.00;;;;;6.46;71.96;100760.31;5055106;28;45400;-59
2021/12/07 03:41:37;;;;;;;;;0.00;0.00;;;;;6.45;71.87;100755.91;5055305;28;45483;-62
2021/12/07 03:44:03;;;;;;;;;5.75;0.50;;;;;6.46;72.04;100749.41;5037145;28;45497;-60
2021/12/07 03:46:29;;;;;;;;;1.00;1.00;;;;;6.40;71.97;100750.97;5054969;28;46402;-58
2021/12/07 03:48:54;;;;;;;;;2.00;0.00;;;;;6.35;71.82;100723.44;5054637;28;45530;-56
2021/12/07 03:51:20;;;;;;;;;1.00;0.00;;;;;6.37;72.30;100729.56;5037010;28;45497;-59
2021/12/07 03:53:46;;;;;;;;;2.25;1.00;;;;;6.36;72.38;100747.78;5020532;28;45367;-53
2021/12/07 03:56:11;;;;;;;;;1.00;1.00;;;;;6.36;71.95;100753.22;5036904;28;45455;-54
2021/12/07 03:58:37;;;;;;;;;5.00;1.00;;;;;6.26;71.57;100733.56;5054327;28;45711;-59
2021/12/07 04:01:05;;;;;;;;;1.00;1.00;;;;;6.25;71.56;100742.78;5036282;28;45405;-58
2021/12/07 04:03:34;;;;;;;;;1.60;1.00;;;;;6.22;72.50;100743.13;5036688;28;45255;-60
2021/12/07 04:06:04;;;;;;;;;1.00;1.00;;;;;6.24;71.88;100733.75;5054108;28;46406;-56
2021/12/07 04:08:29;;;;;;;;;0.00;0.00;;;;;6.20;72.06;100724.22;5020256;28;46336;-59
2021/12/07 04:10:55;;;;;;;;;0.25;0.25;;;;;6.21;72.51;100730.53;5054481;28;45375;-57
2021/12/07 04:13:21;;;;;;;;;1.00;0.25;;;;;6.19;72.15;100727.16;5054386;28;45113;-58
2021/12/07 04:15:47;;;;;;;;;1.75;0.75;;;;;6.18;71.99;100733.63;5052912;28;47292;-59
2021/12/07 04:18:12;;;;;;;;;1.50;1.25;;;;;6.19;72.79;100748.97;5036543;28;45452;-60
2021/12/07 04:20:38;;;;;;;;;0.75;0.75;;;;;6.18;71.84;100750.81;5055242;28;45507;-61
2021/12/07 04:23:04;;;;;;;;;0.00;0.00;;;;;6.16;72.03;100746.59;5040148;28;45409;-57
2021/12/07 04:25:29;;;;;;;;;1.00;1.00;;;;;6.15;71.69;100748.50;5057918;28;45953;-59
2021/12/07 04:27:55;;;;;;;;;2.00;0.50;;;;;6.12;72.36;100726.19;5057782;28;45480;-51
2021/12/07 04:30:23;;;;;;;;;0.00;0.00;;;;;5.95;71.72;100699.03;5056833;28;45395;-54
2021/12/07 04:32:48;;;;;;;;;1.00;1.00;;;;;5.97;72.33;100707.88;5058160;28;45302;-58
2021/12/07 04:35:14;;;;;;;;;1.00;1.00;;;;;6.13;72.49;100733.34;5056095;28;45509;-62
2021/12/07 04:37:39;;;;;;;;;3.50;1.00;;;;;6.12;71.70;100742.56;5039396;28;45382;-61
2021/12/07 04:40:06;;;;;;;;;2.00;0.50;;;;;6.14;71.87;100741.31;5056494;28;45427;-59
2021/12/07 04:42:31;;;;;;;;;3.20;0.00;;;;;5.97;72.42;100713.31;5058027;28;45504;-56
2021/12/07 04:45:01;;;;;;;;;2.00;1.00;;;;;6.07;71.47;100726.72;5057725;28;46209;-55
2021/12/07 04:47:49;;;;;;;;;1.40;1.40;;;;;6.11;72.03;100741.69;5057881;28;45410;-56
2021/12/07 04:58:18;;;;;;;;;2.20;2.20;;;;;6.06;72.38;100727.75;5047541;28;45339;-54
2021/12/07 05:00:44;;;;;;;;;3.75;1.50;;;;;5.96;72.60;100719.81;5039338;28;45419;-57
2021/12/07 05:03:12;;;;;;;;;1.00;1.00;;;;;5.96;72.61;100728.84;5057414;28;45338;-57
2021/12/07 05:05:44;;;;;;;;;3.80;2.00;;;;;5.96;72.47;100728.84;5039485;28;47050;-61
2021/12/07 05:08:13;;;;;;;;;2.40;0.60;;;;;5.91;72.14;100720.34;5023532;28;45339;-56
2021/12/07 05:40:01;;;;;;;;;5.60;2.40;;;;;5.77;73.28;100735.59;5041767;28;45308;-57
2021/12/07 05:42:26;;;;;;;;;2.80;2.80;;;;;5.78;73.61;100731.88;5056954;28;45422;-53
2021/12/07 05:44:52;;;;;;;;;1.00;1.00;;;;;5.75;73.60;100734.94;5055493;28;45544;-59
2021/12/07 05:47:18;;;;;;;;;3.60;2.20;;;;;5.78;73.15;100737.31;5037975;28;47302;-60
2021/12/07 05:49:44;;;;;;;;;3.75;3.75;;;;;5.51;72.80;100701.38;5056213;28;45356;-60
2021/12/07 05:52:09;;;;;;;;;5.00;3.50;;;;;5.74;73.31;100746.84;5038878;28;45386;-60
2021/12/07 05:54:35;;;;;;;;;2.75;2.25;;;;;5.72;73.10;100738.03;5057506;28;45612;-65
2021/12/07 05:57:00;;;;;;;;;5.00;5.00;;;;;5.74;73.33;100754.16;5021640;28;45845;-52
2021/12/07 05:59:26;;;;;;;;;3.75;2.50;;;;;5.60;73.08;100723.94;5056065;28;45476;-53
2021/12/07 06:01:51;;;;;;;;;4.25;4.25;;;;;5.78;73.67;100759.09;5056331;28;45434;-58
2021/12/07 06:04:17;;;;;;;;;5.00;5.00;;;;;5.77;73.56;100743.75;5038187;28;45438;-57
2021/12/07 06:06:42;;;;;;;;;4.75;4.25;;;;;5.50;73.37;100723.34;5021629;28;47517;-55
2021/12/07 06:09:08;;;;;;;;;8.00;4.00;;;;;5.66;72.99;100739.56;5038561;28;45327;-61
2021/12/07 06:11:33;;;;;;;;;4.75;4.50;;;;;5.61;72.98;100743.88;5038335;28;45365;-60
2021/12/07 06:13:59;;;;;;;;;4.00;4.00;;;;;5.69;73.19;100743.81;5038179;28;45199;-60
2021/12/07 06:16:29;;;;;;;;;7.50;6.00;;;;;5.67;73.48;100744.00;5054572;28;46694;-61
2021/12/07 06:18:55;;;;;;;;;4.80;4.80;;;;;5.52;73.22;100715.84;5056179;28;45425;-55
2021/12/07 06:21:20;;;;;;;;;5.25;5.00;;;;;5.72;73.23;100734.44;5055010;28;45397;-61
2021/12/07 06:23:46;;;;;;;;;8.25;5.00;;;;;5.67;72.57;100724.09;5056756;28;45297;-50
2021/12/07 06:26:11;;;;;;;;;9.00;5.25;;;;;5.64;73.49;100714.41;5055864;28;45381;-52
2021/12/07 06:28:37;;;;;;;;;7.75;5.75;;;;;5.60;73.58;100706.78;5037873;28;45616;-61
2021/12/07 06:31:03;;;;;;;;;7.00;5.50;;;;;5.64;73.15;100708.09;5038282;28;45334;-62
2021/12/07 06:33:28;;;;;;;;;6.00;5.25;;;;;5.42;73.24;100664.34;5056423;28;45360;-60
2021/12/07 06:35:59;;;;;;;;;6.00;6.00;;;;;5.64;73.15;100700.78;5037980;28;46118;-60
2021/12/07 06:38:25;;;;;;;;;12.40;7.60;;;;;5.66;73.23;100692.44;5038205;28;45507;-58
2021/12/07 06:40:51;;;;;;;;;8.60;8.60;;;;;5.75;73.92;100691.34;5056171;28;45356;-57
2021/12/07 06:43:17;;;;;;;;;6.50;5.00;;;;;5.75;73.49;100680.47;4985322;28;45571;-59
2021/12/07 06:45:42;;;;;;;;;9.75;6.50;;;;;5.68;74.19;100688.53;5017180;28;45390;-60
2021/12/07 06:48:08;;;;;;;;;9.00;9.00;;;;;5.27;73.39;100623.44;5017551;28;45269;-61
2021/12/07 06:50:34;;;;;;;;;9.50;8.00;;;;;5.57;73.60;100692.47;5035451;28;45328;-62
2021/12/07 06:53:00;;;;;;;;;9.60;8.20;;;;;5.55;73.32;100689.09;5035399;28;45492;-57
2021/12/07 06:55:25;;;;;;;;;9.00;6.50;;;;;5.50;74.17;100687.97;5035347;28;46178;-54
2021/12/07 06:57:51;;;;;;;;;11.00;9.25;;;;;5.16;73.71;100619.25;5035178;28;45299;-58
2021/12/07 07:00:17;;;;;;;;;11.75;11.75;;;;;5.50;73.47;100663.44;5034959;28;45363;-58
2021/12/07 07:02:42;;;;;;;;;9.40;9.20;;;;;5.45;74.05;100669.44;5035335;28;45358;-56
2021/12/07 07:05:08;;;;;;;;;13.00;11.50;;;;;5.32;73.77;100650.13;5017362;28;46994;-58
2021/12/07 07:07:34;;;;;;;;;12.00;10.80;;;;;5.38;74.16;100669.31;5017296;28;45480;-60
2021/12/07 07:10:00;;;;;;;;;9.50;9.50;;;;;5.30;74.36;100647.59;5001225;28;45448;-60
2021/12/07 07:12:25;;;;;;;;;9.25;8.00;;;;;5.45;74.33;100652.25;5017764;28;45482;-61
2021/12/07 07:14:51;;;;;;;;;10.00;9.50;;;;;5.46;74.33;100646.63;5035025;28;45653;-60
2021/12/07 07:17:16;;;;;;;;;14.00;13.25;;;;;5.41;74.80;100638.16;5000621;28;45452;-55
2021/12/07 07:19:43;;;;;;;;;11.50;10.75;;;;;5.51;74.15;100644.19;5017460;28;45419;-53
2021/12/07 07:22:08;;;;;;;;;15.80;14.00;;;;;5.50;74.27;100641.69;5035116;28;45581;-58
2021/12/07 07:24:34;;;;;;;;;21.00;16.75;;;;;5.41;75.00;100640.88;5035006;28;45871;-56
2021/12/07 07:26:59;;;;;;;;;16.00;14.25;;;;;5.19;75.12;100594.41;5035105;28;45234;-57
2021/12/07 07:29:25;;;;;;;;;22.00;20.75;;;;;5.41;75.31;100630.00;5017492;28;45499;-61
2021/12/07 07:31:51;;;;;;;;;16.75;12.00;;;;;5.39;75.54;100623.88;5017524;28;45206;-59
2021/12/07 07:34:16;;;;;;;;;21.75;16.00;;;;;5.33;75.51;100611.81;5035061;28;46402;-59
2021/12/07 07:36:42;;;;;;;;;20.75;16.50;;;;;5.36;74.63;100608.75;5033639;28;45373;-56
2021/12/07 07:39:07;;;;;;;;;22.00;19.00;;;;;5.24;74.83;100578.38;5000590;28;45398;-58
2021/12/07 07:41:33;;;;;;;;;20.75;17.00;;;;;4.90;74.79;100510.78;5002881;28;45266;-57
2021/12/07 07:43:58;;;;;;;;;18.50;16.25;;;;;5.34;75.30;100588.19;4999779;28;46605;-54
2021/12/07 07:46:24;;;;;;;;;22.00;19.00;;;;;5.43;76.06;100563.44;5016977;28;45514;-57
2021/12/07 07:48:49;;;;;;;;;22.75;18.25;;;;;5.65;74.09;100593.56;5035015;28;45448;-52
2021/12/07 07:51:15;;;;;;;;;16.00;16.00;;;;;5.59;74.62;100580.66;5016750;28;45438;-56
2021/12/07 07:53:40;;;;;;;;;15.50;15.25;;;;;5.59;74.45;100593.47;5016366;28;45658;-60
2021/12/07 07:56:06;;;;;;;;;20.75;18.25;;;;;5.52;74.82;100588.75;5034519;28;45404;-59
2021/12/07 07:58:32;;;;;;;;;21.75;16.75;;;;;5.52;75.31;100582.44;5034239;28;45528;-55
2021/12/07 08:00:57;;;;;;;;;16.75;16.75;;;;;5.54;75.12;100589.41;5016504;28;45411;-60
2021/12/07 08:03:23;;;;;;;;;14.00;14.00;;;;;5.41;74.78;100556.50;5034062;28;46093;-57
2021/12/07 08:05:48;;;;;;;;;17.50;14.25;;;;;5.56;74.52;100570.16;5034478;28;45302;-59
2021/12/07 08:08:14;;;;;;;;;17.75;14.50;;;;;5.50;74.68;100566.28;5016541;28;45394;-58
2021/12/07 08:10:40;;;;;;;;;20.00;17.00;;;;;5.36;75.73;100537.13;5034535;28;45657;-59
2021/12/07 08:13:06;;;;;;;;;16.75;12.75;;;;;5.45;75.13;100552.38;5016127;28;48112;-54
2021/12/07 08:15:35;;;;;;;;;17.20;14.00;;;;;5.37;74.68;100553.28;5016521;28;45673;-60
2021/12/07 08:18:01;;;;;;;;;17.80;16.40;;;;;5.14;75.04;100529.63;5032833;28;45432;-60
2021/12/07 08:20:26;;;;;;;;;16.00;14.25;;;;;5.24;75.38;100551.16;5016431;28;45421;-55
2021/12/07 08:22:52;;;;;;;;;16.25;16.00;;;;;5.21;75.11;100556.97;5033902;28;45541;-55
2021/12/07 08:25:17;;;;;;;;;18.25;13.75;;;;;4.93;74.52;100505.81;5034203;28;45349;-58
2021/12/07 08:27:43;;;;;;;;;11.50;10.25;;;;;5.15;75.39;100541.38;4999753;28;45348;-57
2021/12/07 08:30:09;;;;;;;;;25.00;19.50;;;;;5.15;75.57;100541.38;5016595;28;45549;-57
2021/12/07 08:32:35;;;;;;;;;17.20;14.80;;;;;5.17;75.67;100533.03;5015917;28;46745;-54
2021/12/07 08:35:00;;;;;;;;;19.50;17.75;;;;;5.06;75.26;100515.28;5033765;28;45238;-58
2021/12/07 08:37:26;;;;;;;;;17.75;16.00;;;;;5.14;75.31;100535.06;5034118;28;45330;-56
2021/12/07 08:39:51;;;;;;;;;16.75;16.75;;;;;5.08;75.22;100532.25;5016404;28;45780;-58
2021/12/07 08:42:19;;;;;;;;;13.50;12.50;;;;;5.02;75.52;100522.94;5022094;28;45644;-60
2021/12/07 08:44:45;;;;;;;;;16.40;14.80;;;;;4.99;75.52;100506.97;5008946;28;45581;-58
2021/12/07 08:47:10;;;;;;;;;11.00;10.50;;;;;5.00;75.51;100528.56;5012735;28;45433;-56
2021/12/07 08:49:36;;;;;;;;;12.50;9.50;;;;;4.91;76.46;100513.31;5033957;28;45548;-60
2021/12/07 08:52:02;;;;;;;;;16.75;12.75;;;;;4.65;76.15;100479.16;5033421;28;46274;-57
2021/12/07 08:59:37;;;;;;;;;15.75;13.25;;;;;4.94;75.70;100529.28;5016023;28;45404;-53
2021/12/07 09:00:00;;;;;;;;;9.80;9.00;;;;;4.85;76.14;100482.25;5015360;28;45364;-59
2021/12/07 09:02:26;;;;;;;;;16.75;14.75;;;;;4.93;75.84;100489.50;4989729;28;46609;-60
2021/12/07 09:04:53;;;;;;;;;15.50;10.25;;;;;4.82;76.97;100481.75;5019231;28;45277;-56
2021/12/07 09:07:19;;;;;;;;;14.80;11.40;;;;;4.85;76.93;100467.78;4998345;28;45349;-57
2021/12/07 09:09:45;;;;;;;;;10.25;9.50;;;;;4.87;78.16;100452.16;5016381;28;45482;-55
2021/12/07 09:12:11;;;;;;;;;14.25;12.75;;;;;4.87;77.08;100449.44;4999603;28;45361;-60
2021/12/07 09:14:37;;;;;;;;;22.20;18.20;;;;;4.85;78.29;100448.75;5017289;28;45321;-55
2021/12/07 09:17:03;;;;;;;;;15.25;15.25;;;;;4.88;77.48;100440.25;4975623;28;45518;-53
2021/12/07 09:19:28;;;;;;;;;12.20;12.00;;;;;4.86;77.66;100428.72;5012788;28;45369;-58
2021/12/07 09:21:54;;;;;;;;;14.75;12.50;;;;;4.89;77.20;100444.66;4997587;28;45622;-54
2021/12/07 09:24:20;;;;;;;;;13.75;10.75;;;;;4.92;76.87;100422.53;4997355;28;45323;-57
2021/12/07 09:26:45;;;;;;;;;16.00;13.00;;;;;4.89;77.60;100414.75;4996096;28;45421;-56
2021/12/07 09:29:11;;;;;;;;;20.25;12.75;;;;;4.94;77.03;100411.47;5012850;28;45859;-57
2021/12/07 09:31:37;;;;;;;;;15.50;14.75;;;;;4.94;77.98;100403.31;4985229;28;45652;-56
2021/12/07 09:34:03;;;;;;;;;19.00;16.50;;;;;4.94;76.88;100397.84;5001495;28;46434;-61
2021/12/07 09:36:28;;;;;;;;;15.00;12.00;;;;;4.88;77.52;100407.59;5011881;28;45445;-54
2021/12/07 09:38:55;;;;;;;;;13.75;13.75;;;;;4.93;77.41;100407.06;5012901;28;45477;-54
2021/12/07 09:41:21;;;;;;;;;16.60;12.20;;;;;4.90;77.09;100418.31;5019722;28;46908;-58
2021/12/07 09:43:46;;;;;;;;;13.00;11.50;;;;;4.78;77.15;100380.66;4981956;28;45959;-53
2021/12/07 09:46:12;;;;;;;;;21.25;16.50;;;;;4.86;77.45;100406.97;5011952;28;45830;-55
2021/12/07 09:48:38;;;;;;;;;16.00;15.50;;;;;4.94;77.56;100412.31;5028148;28;45498;-56
2021/12/07 09:51:04;;;;;;;;;14.25;9.75;;;;;5.00;77.23;100413.44;5012127;28;45402;-62
2021/12/07 09:53:30;;;;;;;;;16.20;15.00;;;;;5.01;76.63;100390.66;5024813;28;45434;-61
2021/12/07 09:55:56;;;;;;;;;17.00;15.00;;;;;5.05;77.53;100396.56;5031072;28;45511;-51
2021/12/07 09:58:22;;;;;;;;;19.00;17.40;;;;;5.06;76.85;100398.28;5032196;28;45599;-55
2021/12/07 10:00:47;;;;;;;;;19.50;17.75;;;;;5.08;77.18;100404.38;5030663;28;45691;-58
2021/12/07 10:03:13;;;;;;;;;16.50;15.75;;;;;4.86;76.83;100372.44;5026890;28;45539;-58
2021/12/07 10:05:40;;;;;;;;;18.50;16.50;;;;;4.99;77.28;100390.88;5022341;28;45501;-57
2021/12/07 10:08:06;;;;;;;;;19.80;18.00;;;;;5.16;76.85;100409.75;5025751;28;45816;-58
2021/12/07 10:10:37;;;;;;;;;22.60;18.60;;;;;5.10;77.32;100399.59;5007248;28;46137;-60
2021/12/07 10:13:03;;;;;;;;;20.80;15.20;;;;;5.17;77.18;100397.00;5009223;28;45389;-56
2021/12/07 10:15:29;;;;;;;;;17.20;13.40;;;;;5.13;77.88;100385.63;5011144;28;45881;-62
2021/12/07 10:18:12;;;;;;;;;18.75;15.75;;;;;5.12;77.93;100373.06;5015991;28;45678;-56
2021/12/07 10:20:46;;;;;;;;;19.80;16.60;;;;;5.18;78.64;100366.03;5006880;28;45822;-60
2021/12/07 10:23:15;;;;;;;;;23.20;18.80;;;;;5.23;78.05;100364.44;5008591;28;45996;-58
2021/12/07 10:25:47;;;;;;;;;18.40;14.40;;;;;5.24;78.93;100343.53;5010463;28;45830;-60
2021/12/07 10:28:27;;;;;;;;;15.40;14.20;;;;;5.24;78.33;100328.03;5010530;28;45587;-54
2021/12/07 10:30:54;;;;;;;;;14.40;12.40;;;;;5.24;78.82;100330.75;5021717;28;46591;-62
2021/12/07 10:33:54;;;;;;;;;12.40;11.80;;;;;5.24;78.93;100319.03;5031253;28;45447;-60
2021/12/07 10:36:41;;;;;;;;;14.80;11.40;;;;;5.35;78.92;100317.72;4992681;28;45996;-59
2021/12/07 10:39:11;;;;;;;;;21.20;14.40;;;;;5.37;78.18;100297.44;5006750;28;46002;-61
2021/12/07 10:41:57;;;;;;;;;16.40;12.20;;;;;5.41;78.65;100278.84;5018290;28;46331;-62
2021/12/07 10:44:24;;;;;;;;;14.80;12.40;;;;;5.42;77.91;100273.22;4989923;28;45390;-61
2021/12/07 10:47:12;;;;;;;;;15.20;13.00;;;;;5.51;78.18;100267.69;5010641;28;45479;-57
2021/12/07 10:49:51;;;;;;;;;16.80;14.20;;;;;5.40;78.28;100249.94;5010482;28;45440;-61
2021/12/07 10:52:27;;;;;;;;;17.00;12.40;;;;;5.55;78.42;100250.75;5025888;28;46661;-61
2021/12/07 10:55:06;;;;;;;;;15.20;14.60;;;;;5.57;78.26;100245.13;5027900;28;45420;-61
2021/12/07 10:57:50;;;;;;;;;18.00;16.00;;;;;5.42;79.05;100197.00;5025599;28;45758;-63
2021/12/07 11:00:17;;;;;;;;;21.60;17.40;;;;;5.65;78.86;100223.22;5021006;28;45617;-61
2021/12/07 11:02:49;;;;;;;;;20.40;16.00;;;;;5.80;78.59;100216.88;5021659;28;46620;-52
2021/12/07 11:05:23;;;;;;;;;21.60;16.00;;;;;5.89;78.08;100204.84;5014514;28;45438;-55
2021/12/07 11:07:50;;;;;;;;;10.40;10.40;;;;;5.95;78.60;100203.22;5012671;28;45466;-54
2021/12/07 11:10:31;;;;;;;;;23.20;18.80;;;;;5.78;77.92;100161.78;5012390;28;45765;-57
2021/12/07 11:13:16;;;;;;;;;24.20;16.00;;;;;5.97;77.85;100182.91;5014693;28;46822;-60
2021/12/07 11:15:52;;;;;;;;;15.40;13.60;;;;;5.96;78.30;100159.44;5013629;28;45320;-57
2021/12/07 11:18:23;;;;;;;;;17.60;12.20;;;;;5.97;78.71;100143.91;5014183;28;45380;-62
2021/12/07 11:20:50;;;;;;;;;17.40;13.40;;;;;6.02;78.59;100132.47;4997394;28;45229;-60
2021/12/07 11:23:16;;;;;;;;;16.60;13.40;;;;;6.04;77.85;100130.41;5013721;28;46639;-59
2021/12/07 11:31:12;;;;;;;;;10.80;9.20;;;;;6.08;77.83;100091.66;5015006;28;45340;-57
2021/12/07 11:33:37;;;;;;;;;14.00;10.00;;;;;6.07;77.60;100081.81;5014841;28;45825;-63
2021/12/07 11:36:37;;;;;;;;;20.75;13.00;;;;;6.10;77.93;100073.22;5014841;28;45349;-62
2021/12/07 11:39:03;;;;;;;;;14.80;10.00;;;;;5.87;77.60;100021.69;4992354;28;45522;-56
2021/12/07 11:41:34;;;;;;;;;9.80;9.20;;;;;6.18;77.57;100055.03;4997757;28;45344;-65
2021/12/07 11:44:04;;;;;;;;;10.60;9.80;;;;;6.18;77.72;100036.81;4997160;28;45928;-62
2021/12/07 11:46:30;;;;;;;;;8.00;8.00;;;;;6.19;77.45;100024.88;5015022;28;45420;-59
2021/12/07 11:49:06;;;;;;;;;15.40;10.00;;;;;6.23;77.62;100020.72;5015321;28;45358;-57
2021/12/07 11:51:32;;;;;;;;;11.80;6.20;;;;;6.31;77.83;100019.72;5013676;28;45359;-57
2021/12/07 11:53:57;;;;;;;;;8.00;6.50;;;;;6.29;77.34;100007.31;5013625;28;46307;-58
2021/12/07 11:56:23;;;;;;;;;14.25;11.00;;;;;6.36;77.82;100003.56;4997791;28;45438;-60
2021/12/07 11:58:48;;;;;;;;;7.00;5.75;;;;;6.42;76.94;100001.06;5010559;28;45364;-59
2021/12/07 12:01:14;;;;;;;;;12.25;8.50;;;;;6.26;77.22;99964.09;5015006;28;45395;-60
2021/12/07 12:03:39;;;;;;;;;7.00;6.25;;;;;6.42;76.98;99968.38;5014643;28;45492;-62
2021/12/07 12:06:05;;;;;;;;;8.75;5.25;;;;;6.38;76.94;99954.31;5013652;28;45512;-62
2021/12/07 12:08:30;;;;;;;;;7.50;7.25;;;;;6.42;76.65;99941.97;4965202;28;45861;-62
2021/12/07 12:11:21;;;;;;;;;10.00;9.00;;;;;6.42;77.05;99947.41;4986316;28;45478;-61
2021/12/07 12:14:22;;;;;;;;;15.60;8.80;;;;;6.42;77.44;99941.97;4979675;28;46722;-63
2021/12/07 12:17:03;;;;;;;;;6.20;6.20;;;;;6.46;76.80;99931.50;5003982;28;45875;-55
2021/12/07 12:19:49;;;;;;;;;6.00;6.00;;;;;6.48;76.92;99913.03;5009246;28;45487;-61
2021/12/07 12:22:26;;;;;;;;;6.00;4.40;;;;;6.50;77.00;99895.44;5020172;28;45619;-59
2021/12/07 12:24:53;;;;;;;;;5.20;5.00;;;;;6.47;76.81;99901.28;5030376;28;45474;-61
2021/12/07 12:27:25;;;;;;;;;9.00;6.20;;;;;6.52;76.75;99897.94;5011328;28;45431;-62
2021/12/07 12:29:52;;;;;;;;;7.00;6.20;;;;;6.50;76.55;99889.97;5010503;28;45749;-58
2021/12/07 12:32:38;;;;;;;;;5.00;5.00;;;;;6.54;77.08;99881.38;5010647;28;45420;-56
2021/12/07 12:35:07;;;;;;;;;7.00;5.00;;;;;6.56;76.41;99861.03;5026705;28;45493;-56
2021/12/07 12:37:33;;;;;;;;;9.60;5.60;;;;;6.58;76.67;99853.50;5028741;28;45357;-62
2021/12/07 12:40:04;;;;;;;;;6.00;3.80;;;;;6.59;76.64;99833.38;5028674;28;45423;-61
2021/12/07 12:42:41;;;;;;;;;5.60;4.20;;;;;6.61;76.52;99824.94;5033160;28;45751;-62
2021/12/07 12:45:11;;;;;;;;;5.20;4.80;;;;;6.58;76.83;99815.31;5032223;28;45703;-56
2021/12/07 12:47:38;;;;;;;;;5.40;4.20;;;;;6.60;76.15;99798.75;5013769;28;45853;-62
2021/12/07 12:50:18;;;;;;;;;3.80;3.80;;;;;6.67;76.41;99787.84;4980031;28;45722;-60
2021/12/07 12:52:57;;;;;;;;;6.00;5.60;;;;;6.69;76.30;99772.09;5014143;28;45617;-61
2021/12/07 12:55:47;;;;;;;;;11.80;6.20;;;;;6.54;76.22;99729.53;5011978;28;46559;-60
2021/12/07 12:58:20;;;;;;;;;5.40;4.20;;;;;6.81;76.05;99745.03;4999365;28;45673;-63
2021/12/07 13:01:15;;;;;;;;;7.40;5.60;;;;;6.78;75.88;99757.22;5012406;28;45340;-61
2021/12/07 13:03:44;;;;;;;;;6.80;5.20;;;;;6.80;75.81;99751.53;5014922;28;45577;-61
2021/12/07 13:06:17;;;;;;;;;8.40;5.80;;;;;6.80;75.89;99741.47;5010809;28;48721;-64
2021/12/07 13:08:53;;;;;;;;;2.40;2.40;;;;;6.81;76.03;99742.28;5001897;28;47181;-61
2021/12/07 13:12:03;;;;;;;;;7.80;3.20;;;;;6.82;75.88;99750.28;5028504;28;45456;-56
2021/12/07 13:14:37;;;;;;;;;5.40;2.00;;;;;6.82;75.50;99720.28;5031609;28;45814;-60
2021/12/07 13:17:07;;;;;;;;;6.00;3.40;;;;;6.81;75.72;99725.94;5028905;28;47607;-63
2021/12/07 13:20:04;;;;;;;;;3.20;3.20;;;;;6.82;75.43;99727.63;5017237;28;45370;-61